sensor_id;sensor_type;location;lat;lon;timestamp;P1;durP1;ratioP1;P2;durP2;ratioP2
28427;SDS011;15662;49.128;8.520;2022-10-16T00:00:08;0.73;;;0.73;;
28427;SDS011;15662;49.128;8.520;2022-10-16T00:02:38;2.72;;;1.00;;
28427;SDS011;15662;49.128;8.520;2022-10-16T00:05:11;1.20;;;0.73;;
28427;SDS011;15662;49.128;8.520;2022-10-16T00:07:40;5.50;;;0.90;;
28427;SDS011;15662;49.128;8.520;2022-10-16T00:10:16;2.70;;;0.70;;
28427;SDS011;15662;49.128;8.520;2022-10-16T00:12:53;0.60;;;0.60;;
28427;SDS011;15662;49.128;8.520;2022-10-16T00:17:54;1.05;;;0.90;;
28427;SDS011;15662;49.128;8.520;2022-10-16T00:20:41;0.80;;;0.80;;
28427;SDS011;15662;49.128;8.520;2022-10-16T00:23:11;3.13;;;0.95;;
28427;SDS011;15662;49.128;8.520;2022-10-16T00:25:40;2.13;;;0.93;;
28427;SDS011;15662;49.128;8.520;2022-10-16T00:28:08;1.67;;;1.50;;
28427;SDS011;15662;49.128;8.520;2022-10-16T00:30:43;2.00;;;1.15;;
28427;SDS011;15662;49.128;8.520;2022-10-16T00:33:20;1.42;;;1.23;;
28427;SDS011;15662;49.128;8.520;2022-10-16T00:35:52;1.23;;;1.15;;
28427;SDS011;15662;49.128;8.520;2022-10-16T00:38:22;1.35;;;0.88;;
28427;SDS011;15662;49.128;8.520;2022-10-16T00:40:53;1.73;;;1.33;;
28427;SDS011;15662;49.128;8.520;2022-10-16T00:43:42;1.20;;;1.10;;
28427;SDS011;15662;49.128;8.520;2022-10-16T00:46:28;2.08;;;1.10;;
28427;SDS011;15662;49.128;8.520;2022-10-16T00:49:12;1.08;;;0.98;;
28427;SDS011;15662;49.128;8.520;2022-10-16T00:51:47;1.42;;;0.75;;
28427;SDS011;15662;49.128;8.520;2022-10-16T00:54:38;2.47;;;1.15;;
28427;SDS011;15662;49.128;8.520;2022-10-16T00:57:08;1.63;;;0.90;;
28427;SDS011;15662;49.128;8.520;2022-10-16T00:59:41;1.63;;;0.88;;
28427;SDS011;15662;49.128;8.520;2022-10-16T01:30:04;1.10;;;1.00;;
28427;SDS011;15662;49.128;8.520;2022-10-16T01:33:15;1.48;;;1.20;;
28427;SDS011;15662;49.128;8.520;2022-10-16T01:35:59;2.03;;;1.00;;
28427;SDS011;15662;49.128;8.520;2022-10-16T01:39:06;1.52;;;0.90;;
28427;SDS011;15662;49.128;8.520;2022-10-16T01:41:44;2.17;;;0.95;;
28427;SDS011;15662;49.128;8.520;2022-10-16T01:44:18;3.97;;;0.80;;
28427;SDS011;15662;49.128;8.520;2022-10-16T01:46:53;1.17;;;0.70;;
28427;SDS011;15662;49.128;8.520;2022-10-16T01:49:25;1.63;;;0.77;;
28427;SDS011;15662;49.128;8.520;2022-10-16T01:52:00;0.70;;;0.70;;
28427;SDS011;15662;49.128;8.520;2022-10-16T01:54:37;0.90;;;0.80;;
28427;SDS011;15662;49.128;8.520;2022-10-16T01:57:15;0.70;;;0.70;;
28427;SDS011;15662;49.128;8.520;2022-10-16T01:59:52;1.70;;;0.65;;
28427;SDS011;15662;49.128;8.520;2022-10-16T02:02:38;2.35;;;0.80;;
28427;SDS011;15662;49.128;8.520;2022-10-16T02:05:16;0.98;;;0.80;;
28427;SDS011;15662;49.128;8.520;2022-10-16T02:07:58;2.22;;;0.90;;
28427;SDS011;15662;49.128;8.520;2022-10-16T02:10:34;1.85;;;0.70;;
28427;SDS011;15662;49.128;8.520;2022-10-16T02:13:05;1.65;;;0.85;;
28427;SDS011;15662;49.128;8.520;2022-10-16T02:15:47;3.00;;;0.90;;
28427;SDS011;15662;49.128;8.520;2022-10-16T02:18:15;1.05;;;0.93;;
28427;SDS011;15662;49.128;8.520;2022-10-16T02:21:00;1.05;;;0.80;;
28427;SDS011;15662;49.128;8.520;2022-10-16T02:24:04;0.95;;;0.60;;
28427;SDS011;15662;49.128;8.520;2022-10-16T02:30:05;0.77;;;0.75;;
28427;SDS011;15662;49.128;8.520;2022-10-16T02:32:50;1.27;;;0.90;;
28427;SDS011;15662;49.128;8.520;2022-10-16T02:35:20;1.48;;;0.90;;
28427;SDS011;15662;49.128;8.520;2022-10-16T02:38:11;1.03;;;1.00;;
28427;SDS011;15662;49.128;8.520;2022-10-16T02:40:41;2.33;;;1.00;;
28427;SDS011;15662;49.128;8.520;2022-10-16T02:43:13;1.65;;;0.98;;
28427;SDS011;15662;49.128;8.520;2022-10-16T02:45:41;1.88;;;0.98;;
28427;SDS011;15662;49.128;8.520;2022-10-16T02:48:11;1.15;;;0.80;;
28427;SDS011;15662;49.128;8.520;2022-10-16T02:50:41;1.20;;;1.10;;
28427;SDS011;15662;49.128;8.520;2022-10-16T02:53:09;1.08;;;0.80;;
28427;SDS011;15662;49.128;8.520;2022-10-16T02:55:39;2.92;;;0.90;;
28427;SDS011;15662;49.128;8.520;2022-10-16T02:58:08;0.70;;;0.70;;
28427;SDS011;15662;49.128;8.520;2022-10-16T03:00:36;1.40;;;0.90;;
28427;SDS011;15662;49.128;8.520;2022-10-16T03:03:05;1.10;;;1.10;;
28427;SDS011;15662;49.128;8.520;2022-10-16T03:05:33;3.75;;;1.10;;
28427;SDS011;15662;49.128;8.520;2022-10-16T03:08:01;2.63;;;1.08;;
28427;SDS011;15662;49.128;8.520;2022-10-16T03:10:29;0.90;;;0.90;;
28427;SDS011;15662;49.128;8.520;2022-10-16T03:12:57;2.50;;;1.10;;
28427;SDS011;15662;49.128;8.520;2022-10-16T03:15:26;1.67;;;1.10;;
28427;SDS011;15662;49.128;8.520;2022-10-16T03:17:57;2.45;;;0.90;;
28427;SDS011;15662;49.128;8.520;2022-10-16T03:20:25;1.00;;;0.80;;
28427;SDS011;15662;49.128;8.520;2022-10-16T03:22:53;1.50;;;0.90;;
28427;SDS011;15662;49.128;8.520;2022-10-16T03:25:22;3.15;;;1.17;;
28427;SDS011;15662;49.128;8.520;2022-10-16T03:27:50;1.02;;;0.88;;
28427;SDS011;15662;49.128;8.520;2022-10-16T03:30:19;1.08;;;0.95;;
28427;SDS011;15662;49.128;8.520;2022-10-16T03:32:49;4.05;;;1.20;;
28427;SDS011;15662;49.128;8.520;2022-10-16T03:35:21;0.90;;;0.90;;
28427;SDS011;15662;49.128;8.520;2022-10-16T03:37:51;1.13;;;1.05;;
28427;SDS011;15662;49.128;8.520;2022-10-16T03:40:19;2.35;;;0.75;;
28427;SDS011;15662;49.128;8.520;2022-10-16T03:42:47;2.00;;;0.90;;
28427;SDS011;15662;49.128;8.520;2022-10-16T03:45:15;4.13;;;0.95;;
28427;SDS011;15662;49.128;8.520;2022-10-16T03:47:43;0.80;;;0.80;;
28427;SDS011;15662;49.128;8.520;2022-10-16T03:50:11;0.85;;;0.70;;
28427;SDS011;15662;49.128;8.520;2022-10-16T03:52:39;1.23;;;0.90;;
28427;SDS011;15662;49.128;8.520;2022-10-16T03:55:07;1.00;;;0.80;;
28427;SDS011;15662;49.128;8.520;2022-10-16T03:57:35;1.00;;;0.88;;
28427;SDS011;15662;49.128;8.520;2022-10-16T04:00:03;1.52;;;0.80;;
28427;SDS011;15662;49.128;8.520;2022-10-16T04:02:38;2.25;;;0.70;;
28427;SDS011;15662;49.128;8.520;2022-10-16T04:05:10;0.90;;;0.90;;
28427;SDS011;15662;49.128;8.520;2022-10-16T04:07:41;1.25;;;0.90;;
28427;SDS011;15662;49.128;8.520;2022-10-16T04:10:09;1.67;;;0.90;;
28427;SDS011;15662;49.128;8.520;2022-10-16T04:12:37;0.80;;;0.80;;
28427;SDS011;15662;49.128;8.520;2022-10-16T04:15:06;3.63;;;0.90;;
28427;SDS011;15662;49.128;8.520;2022-10-16T04:17:35;0.70;;;0.70;;
28427;SDS011;15662;49.128;8.520;2022-10-16T04:20:05;0.93;;;0.70;;
28427;SDS011;15662;49.128;8.520;2022-10-16T04:22:37;1.23;;;0.82;;
28427;SDS011;15662;49.128;8.520;2022-10-16T04:25:06;1.20;;;1.02;;
28427;SDS011;15662;49.128;8.520;2022-10-16T04:27:34;1.05;;;0.90;;
28427;SDS011;15662;49.128;8.520;2022-10-16T04:30:02;0.90;;;0.90;;
28427;SDS011;15662;49.128;8.520;2022-10-16T04:32:33;1.88;;;1.10;;
28427;SDS011;15662;49.128;8.520;2022-10-16T04:35:01;0.93;;;0.85;;
28427;SDS011;15662;49.128;8.520;2022-10-16T04:37:29;5.97;;;1.17;;
28427;SDS011;15662;49.128;8.520;2022-10-16T04:39:59;2.45;;;0.80;;
28427;SDS011;15662;49.128;8.520;2022-10-16T04:42:27;1.60;;;1.10;;
28427;SDS011;15662;49.128;8.520;2022-10-16T04:44:55;0.60;;;0.60;;
28427;SDS011;15662;49.128;8.520;2022-10-16T04:47:23;1.05;;;1.00;;
28427;SDS011;15662;49.128;8.520;2022-10-16T04:49:51;6.35;;;1.30;;
28427;SDS011;15662;49.128;8.520;2022-10-16T04:52:19;1.98;;;0.90;;
28427;SDS011;15662;49.128;8.520;2022-10-16T04:54:48;1.27;;;1.08;;
28427;SDS011;15662;49.128;8.520;2022-10-16T04:57:17;1.00;;;0.90;;
28427;SDS011;15662;49.128;8.520;2022-10-16T04:59:45;1.13;;;0.90;;
28427;SDS011;15662;49.128;8.520;2022-10-16T05:02:13;1.30;;;0.80;;
28427;SDS011;15662;49.128;8.520;2022-10-16T05:04:42;2.65;;;0.93;;
28427;SDS011;15662;49.128;8.520;2022-10-16T05:07:09;0.90;;;0.90;;
28427;SDS011;15662;49.128;8.520;2022-10-16T05:09:37;0.88;;;0.80;;
28427;SDS011;15662;49.128;8.520;2022-10-16T05:12:05;2.28;;;1.15;;
28427;SDS011;15662;49.128;8.520;2022-10-16T05:14:33;2.20;;;1.02;;
28427;SDS011;15662;49.128;8.520;2022-10-16T05:17:01;2.13;;;0.88;;
28427;SDS011;15662;49.128;8.520;2022-10-16T05:19:29;2.17;;;0.88;;
28427;SDS011;15662;49.128;8.520;2022-10-16T05:21:58;3.00;;;1.02;;
28427;SDS011;15662;49.128;8.520;2022-10-16T05:24:26;1.77;;;0.90;;
28427;SDS011;15662;49.128;8.520;2022-10-16T05:26:54;2.20;;;1.10;;
28427;SDS011;15662;49.128;8.520;2022-10-16T05:29:24;1.65;;;1.00;;
28427;SDS011;15662;49.128;8.520;2022-10-16T05:31:52;1.45;;;0.90;;
28427;SDS011;15662;49.128;8.520;2022-10-16T05:34:20;1.77;;;0.57;;
28427;SDS011;15662;49.128;8.520;2022-10-16T05:36:48;3.25;;;1.00;;
28427;SDS011;15662;49.128;8.520;2022-10-16T05:39:19;0.73;;;0.73;;
28427;SDS011;15662;49.128;8.520;2022-10-16T05:41:49;4.28;;;0.90;;
28427;SDS011;15662;49.128;8.520;2022-10-16T05:44:17;1.33;;;0.80;;
28427;SDS011;15662;49.128;8.520;2022-10-16T05:46:46;1.73;;;0.90;;
28427;SDS011;15662;49.128;8.520;2022-10-16T05:49:14;2.83;;;0.63;;
28427;SDS011;15662;49.128;8.520;2022-10-16T05:51:44;0.80;;;0.70;;
28427;SDS011;15662;49.128;8.520;2022-10-16T05:54:12;2.17;;;0.70;;
28427;SDS011;15662;49.128;8.520;2022-10-16T05:56:40;0.80;;;0.70;;
28427;SDS011;15662;49.128;8.520;2022-10-16T05:59:08;0.80;;;0.80;;
28427;SDS011;15662;49.128;8.520;2022-10-16T06:01:36;1.00;;;0.95;;
28427;SDS011;15662;49.128;8.520;2022-10-16T06:04:04;1.38;;;0.80;;
28427;SDS011;15662;49.128;8.520;2022-10-16T06:06:32;3.17;;;0.90;;
28427;SDS011;15662;49.128;8.520;2022-10-16T06:09:04;1.77;;;0.90;;
28427;SDS011;15662;49.128;8.520;2022-10-16T06:11:33;2.75;;;1.10;;
28427;SDS011;15662;49.128;8.520;2022-10-16T06:14:01;1.23;;;1.05;;
28427;SDS011;15662;49.128;8.520;2022-10-16T06:16:34;3.95;;;0.95;;
28427;SDS011;15662;49.128;8.520;2022-10-16T06:19:06;1.60;;;0.80;;
28427;SDS011;15662;49.128;8.520;2022-10-16T06:21:35;2.70;;;1.25;;
28427;SDS011;15662;49.128;8.520;2022-10-16T06:24:05;2.20;;;1.25;;
28427;SDS011;15662;49.128;8.520;2022-10-16T06:26:36;2.43;;;1.03;;
28427;SDS011;15662;49.128;8.520;2022-10-16T06:29:08;3.10;;;1.40;;
28427;SDS011;15662;49.128;8.520;2022-10-16T06:31:37;3.97;;;1.30;;
28427;SDS011;15662;49.128;8.520;2022-10-16T06:34:09;3.03;;;1.23;;
28427;SDS011;15662;49.128;8.520;2022-10-16T06:36:38;1.40;;;1.40;;
28427;SDS011;15662;49.128;8.520;2022-10-16T06:39:08;5.55;;;1.45;;
28427;SDS011;15662;49.128;8.520;2022-10-16T06:41:36;3.60;;;1.50;;
28427;SDS011;15662;49.128;8.520;2022-10-16T06:44:15;3.50;;;1.50;;
28427;SDS011;15662;49.128;8.520;2022-10-16T06:46:44;2.15;;;1.15;;
28427;SDS011;15662;49.128;8.520;2022-10-16T06:49:15;1.80;;;1.10;;
28427;SDS011;15662;49.128;8.520;2022-10-16T06:51:48;1.38;;;1.20;;
28427;SDS011;15662;49.128;8.520;2022-10-16T06:54:16;1.33;;;1.10;;
28427;SDS011;15662;49.128;8.520;2022-10-16T06:56:47;3.13;;;1.15;;
28427;SDS011;15662;49.128;8.520;2022-10-16T06:59:15;3.65;;;1.50;;
28427;SDS011;15662;49.128;8.520;2022-10-16T07:01:42;6.45;;;1.40;;
28427;SDS011;15662;49.128;8.520;2022-10-16T07:04:13;4.35;;;1.27;;
28427;SDS011;15662;49.128;8.520;2022-10-16T07:06:45;2.72;;;1.25;;
28427;SDS011;15662;49.128;8.520;2022-10-16T07:09:14;1.33;;;1.23;;
28427;SDS011;15662;49.128;8.520;2022-10-16T07:11:42;2.20;;;1.35;;
28427;SDS011;15662;49.128;8.520;2022-10-16T07:14:15;3.17;;;1.63;;
28427;SDS011;15662;49.128;8.520;2022-10-16T07:16:49;5.43;;;1.58;;
28427;SDS011;15662;49.128;8.520;2022-10-16T07:19:17;3.63;;;1.30;;
28427;SDS011;15662;49.128;8.520;2022-10-16T07:21:46;4.25;;;1.35;;
28427;SDS011;15662;49.128;8.520;2022-10-16T07:24:15;2.35;;;1.25;;
28427;SDS011;15662;49.128;8.520;2022-10-16T07:26:44;1.10;;;1.10;;
28427;SDS011;15662;49.128;8.520;2022-10-16T07:29:14;1.40;;;1.15;;
28427;SDS011;15662;49.128;8.520;2022-10-16T07:31:46;2.75;;;1.25;;
28427;SDS011;15662;49.128;8.520;2022-10-16T07:34:16;4.82;;;1.13;;
28427;SDS011;15662;49.128;8.520;2022-10-16T07:36:47;1.25;;;1.15;;
28427;SDS011;15662;49.128;8.520;2022-10-16T07:39:17;3.33;;;1.30;;
28427;SDS011;15662;49.128;8.520;2022-10-16T07:41:45;2.45;;;1.77;;
28427;SDS011;15662;49.128;8.520;2022-10-16T07:44:17;4.63;;;1.60;;
28427;SDS011;15662;49.128;8.520;2022-10-16T07:46:47;1.70;;;1.60;;
28427;SDS011;15662;49.128;8.520;2022-10-16T07:49:15;3.42;;;1.40;;
28427;SDS011;15662;49.128;8.520;2022-10-16T07:51:45;7.88;;;1.52;;
28427;SDS011;15662;49.128;8.520;2022-10-16T07:54:13;3.30;;;1.48;;
28427;SDS011;15662;49.128;8.520;2022-10-16T07:56:41;4.65;;;1.60;;
28427;SDS011;15662;49.128;8.520;2022-10-16T07:59:10;1.15;;;1.15;;
28427;SDS011;15662;49.128;8.520;2022-10-16T08:01:39;2.15;;;1.50;;
28427;SDS011;15662;49.128;8.520;2022-10-16T08:04:10;2.88;;;1.40;;
28427;SDS011;15662;49.128;8.520;2022-10-16T08:06:41;1.88;;;1.00;;
28427;SDS011;15662;49.128;8.520;2022-10-16T08:09:09;1.17;;;1.10;;
28427;SDS011;15662;49.128;8.520;2022-10-16T08:11:37;1.75;;;1.00;;
28427;SDS011;15662;49.128;8.520;2022-10-16T08:14:07;0.90;;;0.90;;
28427;SDS011;15662;49.128;8.520;2022-10-16T08:16:35;1.08;;;1.00;;
28427;SDS011;15662;49.128;8.520;2022-10-16T08:19:05;3.72;;;1.23;;
28427;SDS011;15662;49.128;8.520;2022-10-16T08:21:35;1.25;;;1.10;;
28427;SDS011;15662;49.128;8.520;2022-10-16T08:24:02;2.15;;;1.10;;
28427;SDS011;15662;49.128;8.520;2022-10-16T08:26:30;1.48;;;0.90;;
28427;SDS011;15662;49.128;8.520;2022-10-16T08:29:00;1.75;;;0.90;;
28427;SDS011;15662;49.128;8.520;2022-10-16T08:31:31;1.33;;;1.05;;
28427;SDS011;15662;49.128;8.520;2022-10-16T08:33:59;4.13;;;0.90;;
28427;SDS011;15662;49.128;8.520;2022-10-16T08:36:47;2.15;;;1.10;;
28427;SDS011;15662;49.128;8.520;2022-10-16T08:39:19;2.10;;;0.90;;
28427;SDS011;15662;49.128;8.520;2022-10-16T08:45:15;1.27;;;0.80;;
28427;SDS011;15662;49.128;8.520;2022-10-16T08:50:55;1.58;;;0.85;;
28427;SDS011;15662;49.128;8.520;2022-10-16T08:53:27;4.97;;;0.90;;
28427;SDS011;15662;49.128;8.520;2022-10-16T08:56:03;1.63;;;1.52;;
28427;SDS011;15662;49.128;8.520;2022-10-16T08:58:33;1.73;;;1.33;;
28427;SDS011;15662;49.128;8.520;2022-10-16T09:01:09;1.95;;;1.30;;
28427;SDS011;15662;49.128;8.520;2022-10-16T09:04:04;1.30;;;0.95;;
28427;SDS011;15662;49.128;8.520;2022-10-16T09:07:09;3.28;;;1.48;;
28427;SDS011;15662;49.128;8.520;2022-10-16T09:12:41;3.78;;;1.05;;
28427;SDS011;15662;49.128;8.520;2022-10-16T09:20:38;0.70;;;0.70;;
28427;SDS011;15662;49.128;8.520;2022-10-16T09:23:46;1.75;;;0.60;;
28427;SDS011;15662;49.128;8.520;2022-10-16T09:26:17;1.65;;;0.90;;
28427;SDS011;15662;49.128;8.520;2022-10-16T09:28:53;1.67;;;0.85;;
28427;SDS011;15662;49.128;8.520;2022-10-16T09:31:22;0.80;;;0.70;;
28427;SDS011;15662;49.128;8.520;2022-10-16T09:34:00;2.30;;;0.80;;
28427;SDS011;15662;49.128;8.520;2022-10-16T09:36:40;1.20;;;0.98;;
28427;SDS011;15662;49.128;8.520;2022-10-16T09:39:12;1.75;;;0.80;;
28427;SDS011;15662;49.128;8.520;2022-10-16T09:41:42;3.15;;;0.90;;
28427;SDS011;15662;49.128;8.520;2022-10-16T09:47:01;0.98;;;0.98;;
28427;SDS011;15662;49.128;8.520;2022-10-16T09:49:37;1.75;;;0.73;;
28427;SDS011;15662;49.128;8.520;2022-10-16T09:52:13;1.27;;;0.90;;
28427;SDS011;15662;49.128;8.520;2022-10-16T09:54:49;1.10;;;1.00;;
28427;SDS011;15662;49.128;8.520;2022-10-16T09:57:31;4.63;;;1.20;;
28427;SDS011;15662;49.128;8.520;2022-10-16T10:00:20;3.58;;;0.90;;
28427;SDS011;15662;49.128;8.520;2022-10-16T10:02:54;0.90;;;0.90;;
28427;SDS011;15662;49.128;8.520;2022-10-16T10:05:27;2.42;;;0.90;;
28427;SDS011;15662;49.128;8.520;2022-10-16T10:08:18;3.35;;;0.95;;
28427;SDS011;15662;49.128;8.520;2022-10-16T10:10:51;0.85;;;0.73;;
28427;SDS011;15662;49.128;8.520;2022-10-16T10:13:24;1.75;;;0.90;;
28427;SDS011;15662;49.128;8.520;2022-10-16T10:15:54;1.13;;;1.00;;
28427;SDS011;15662;49.128;8.520;2022-10-16T10:18:47;1.95;;;0.90;;
28427;SDS011;15662;49.128;8.520;2022-10-16T10:21:26;1.50;;;1.00;;
28427;SDS011;15662;49.128;8.520;2022-10-16T10:23:55;1.75;;;0.90;;
28427;SDS011;15662;49.128;8.520;2022-10-16T10:26:26;0.88;;;0.82;;
28427;SDS011;15662;49.128;8.520;2022-10-16T10:29:18;1.30;;;1.20;;
28427;SDS011;15662;49.128;8.520;2022-10-16T10:32:18;2.28;;;0.73;;
28427;SDS011;15662;49.128;8.520;2022-10-16T10:35:32;0.73;;;0.73;;
28427;SDS011;15662;49.128;8.520;2022-10-16T10:52:32;0.98;;;0.98;;
28427;SDS011;15662;49.128;8.520;2022-10-16T11:06:50;2.30;;;1.00;;
28427;SDS011;15662;49.128;8.520;2022-10-16T11:09:43;2.13;;;0.80;;
28427;SDS011;15662;49.128;8.520;2022-10-16T11:12:29;1.15;;;1.00;;
28427;SDS011;15662;49.128;8.520;2022-10-16T11:15:11;1.25;;;0.82;;
28427;SDS011;15662;49.128;8.520;2022-10-16T11:18:06;5.00;;;1.20;;
28427;SDS011;15662;49.128;8.520;2022-10-16T11:21:19;2.00;;;1.15;;
28427;SDS011;15662;49.128;8.520;2022-10-16T11:24:01;2.15;;;0.93;;
28427;SDS011;15662;49.128;8.520;2022-10-16T11:26:39;2.65;;;1.10;;
28427;SDS011;15662;49.128;8.520;2022-10-16T11:29:15;3.78;;;1.27;;
28427;SDS011;15662;49.128;8.520;2022-10-16T11:31:53;1.67;;;0.95;;
28427;SDS011;15662;49.128;8.520;2022-10-16T11:34:34;2.88;;;1.27;;
28427;SDS011;15662;49.128;8.520;2022-10-16T11:37:12;2.90;;;1.05;;
28427;SDS011;15662;49.128;8.520;2022-10-16T11:39:52;1.00;;;0.90;;
28427;SDS011;15662;49.128;8.520;2022-10-16T11:42:30;2.60;;;1.00;;
28427;SDS011;15662;49.128;8.520;2022-10-16T11:47:44;0.90;;;0.90;;
28427;SDS011;15662;49.128;8.520;2022-10-16T11:53:38;2.45;;;1.33;;
28427;SDS011;15662;49.128;8.520;2022-10-16T11:56:25;3.65;;;1.05;;
28427;SDS011;15662;49.128;8.520;2022-10-16T11:58:58;2.47;;;1.40;;
28427;SDS011;15662;49.128;8.520;2022-10-16T12:07:27;2.33;;;1.00;;
28427;SDS011;15662;49.128;8.520;2022-10-16T12:10:10;0.98;;;0.90;;
28427;SDS011;15662;49.128;8.520;2022-10-16T12:12:54;3.50;;;0.95;;
28427;SDS011;15662;49.128;8.520;2022-10-16T12:15:27;1.30;;;0.93;;
28427;SDS011;15662;49.128;8.520;2022-10-16T12:18:22;0.82;;;0.80;;
28427;SDS011;15662;49.128;8.520;2022-10-16T12:20:56;9.20;;;0.90;;
28427;SDS011;15662;49.128;8.520;2022-10-16T12:23:27;1.17;;;0.80;;
28427;SDS011;15662;49.128;8.520;2022-10-16T12:25:55;3.08;;;0.90;;
28427;SDS011;15662;49.128;8.520;2022-10-16T12:31:01;0.80;;;0.80;;
28427;SDS011;15662;49.128;8.520;2022-10-16T12:33:33;1.83;;;0.70;;
28427;SDS011;15662;49.128;8.520;2022-10-16T12:36:15;0.75;;;0.75;;
28427;SDS011;15662;49.128;8.520;2022-10-16T12:38:59;1.00;;;1.00;;
28427;SDS011;15662;49.128;8.520;2022-10-16T12:41:32;3.45;;;0.90;;
28427;SDS011;15662;49.128;8.520;2022-10-16T12:44:31;1.88;;;0.88;;
28427;SDS011;15662;49.128;8.520;2022-10-16T12:47:00;2.20;;;0.90;;
28427;SDS011;15662;49.128;8.520;2022-10-16T12:49:31;0.80;;;0.80;;
28427;SDS011;15662;49.128;8.520;2022-10-16T12:52:04;1.38;;;1.00;;
28427;SDS011;15662;49.128;8.520;2022-10-16T12:55:01;0.80;;;0.80;;
28427;SDS011;15662;49.128;8.520;2022-10-16T13:18:12;3.63;;;1.00;;
28427;SDS011;15662;49.128;8.520;2022-10-16T13:30:18;1.80;;;1.20;;
28427;SDS011;15662;49.128;8.520;2022-10-16T13:32:59;1.80;;;1.17;;
28427;SDS011;15662;49.128;8.520;2022-10-16T13:35:54;1.33;;;1.13;;
28427;SDS011;15662;49.128;8.520;2022-10-16T13:38:28;2.78;;;1.00;;
28427;SDS011;15662;49.128;8.520;2022-10-16T13:41:05;3.60;;;1.10;;
28427;SDS011;15662;49.128;8.520;2022-10-16T13:46:21;0.82;;;0.82;;
28427;SDS011;15662;49.128;8.520;2022-10-16T13:49:03;3.00;;;1.20;;
28427;SDS011;15662;49.128;8.520;2022-10-16T13:51:53;1.13;;;1.05;;
28427;SDS011;15662;49.128;8.520;2022-10-16T13:54:27;3.25;;;1.10;;
28427;SDS011;15662;49.128;8.520;2022-10-16T13:57:04;1.40;;;1.15;;
28427;SDS011;15662;49.128;8.520;2022-10-16T13:59:53;2.20;;;0.90;;
28427;SDS011;15662;49.128;8.520;2022-10-16T14:02:26;1.35;;;0.95;;
28427;SDS011;15662;49.128;8.520;2022-10-16T14:05:08;1.85;;;1.20;;
28427;SDS011;15662;49.128;8.520;2022-10-16T14:07:37;1.20;;;1.00;;
28427;SDS011;15662;49.128;8.520;2022-10-16T14:10:07;1.42;;;1.08;;
28427;SDS011;15662;49.128;8.520;2022-10-16T14:12:59;1.35;;;0.90;;
28427;SDS011;15662;49.128;8.520;2022-10-16T14:15:34;1.65;;;1.23;;
28427;SDS011;15662;49.128;8.520;2022-10-16T14:18:05;0.95;;;0.90;;
28427;SDS011;15662;49.128;8.520;2022-10-16T14:20:33;1.85;;;1.10;;
28427;SDS011;15662;49.128;8.520;2022-10-16T14:23:04;2.45;;;1.00;;
28427;SDS011;15662;49.128;8.520;2022-10-16T14:25:51;4.15;;;1.23;;
28427;SDS011;15662;49.128;8.520;2022-10-16T14:28:20;3.38;;;1.20;;
28427;SDS011;15662;49.128;8.520;2022-10-16T14:30:55;2.92;;;0.95;;
28427;SDS011;15662;49.128;8.520;2022-10-16T14:36:24;1.98;;;0.98;;
28427;SDS011;15662;49.128;8.520;2022-10-16T14:39:03;2.42;;;1.08;;
28427;SDS011;15662;49.128;8.520;2022-10-16T14:41:47;1.15;;;0.90;;
28427;SDS011;15662;49.128;8.520;2022-10-16T14:44:18;0.95;;;0.88;;
28427;SDS011;15662;49.128;8.520;2022-10-16T14:46:50;1.02;;;1.00;;
28427;SDS011;15662;49.128;8.520;2022-10-16T14:49:18;1.30;;;0.93;;
28427;SDS011;15662;49.128;8.520;2022-10-16T14:51:49;2.33;;;1.00;;
28427;SDS011;15662;49.128;8.520;2022-10-16T14:54:19;4.55;;;1.05;;
28427;SDS011;15662;49.128;8.520;2022-10-16T14:56:51;2.53;;;0.98;;
28427;SDS011;15662;49.128;8.520;2022-10-16T14:59:27;2.78;;;0.80;;
28427;SDS011;15662;49.128;8.520;2022-10-16T15:02:13;3.17;;;1.25;;
28427;SDS011;15662;49.128;8.520;2022-10-16T15:05:01;2.42;;;1.17;;
28427;SDS011;15662;49.128;8.520;2022-10-16T15:07:50;2.83;;;1.10;;
28427;SDS011;15662;49.128;8.520;2022-10-16T15:10:22;1.33;;;1.00;;
28427;SDS011;15662;49.128;8.520;2022-10-16T15:12:53;4.78;;;1.30;;
28427;SDS011;15662;49.128;8.520;2022-10-16T15:18:02;4.68;;;1.05;;
28427;SDS011;15662;49.128;8.520;2022-10-16T15:20:33;14.07;;;1.45;;
28427;SDS011;15662;49.128;8.520;2022-10-16T15:23:10;2.35;;;1.30;;
28427;SDS011;15662;49.128;8.520;2022-10-16T15:25:44;1.42;;;0.88;;
28427;SDS011;15662;49.128;8.520;2022-10-16T15:28:19;5.75;;;1.40;;
28427;SDS011;15662;49.128;8.520;2022-10-16T15:30:49;1.17;;;0.80;;
28427;SDS011;15662;49.128;8.520;2022-10-16T15:35:55;1.63;;;0.90;;
28427;SDS011;15662;49.128;8.520;2022-10-16T15:38:24;1.67;;;1.20;;
28427;SDS011;15662;49.128;8.520;2022-10-16T15:40:54;1.85;;;1.60;;
28427;SDS011;15662;49.128;8.520;2022-10-16T15:43:22;2.67;;;1.65;;
28427;SDS011;15662;49.128;8.520;2022-10-16T15:45:59;3.03;;;1.50;;
28427;SDS011;15662;49.128;8.520;2022-10-16T15:48:34;2.00;;;1.50;;
28427;SDS011;15662;49.128;8.520;2022-10-16T15:51:06;2.22;;;1.70;;
28427;SDS011;15662;49.128;8.520;2022-10-16T15:53:39;1.70;;;1.55;;
28427;SDS011;15662;49.128;8.520;2022-10-16T15:56:09;7.47;;;1.60;;
28427;SDS011;15662;49.128;8.520;2022-10-16T15:58:39;1.60;;;1.50;;
28427;SDS011;15662;49.128;8.520;2022-10-16T16:01:09;1.80;;;1.70;;
28427;SDS011;15662;49.128;8.520;2022-10-16T16:03:38;3.22;;;2.05;;
28427;SDS011;15662;49.128;8.520;2022-10-16T16:06:10;1.83;;;1.60;;
28427;SDS011;15662;49.128;8.520;2022-10-16T16:08:42;2.42;;;1.77;;
28427;SDS011;15662;49.128;8.520;2022-10-16T16:11:12;2.65;;;2.22;;
28427;SDS011;15662;49.128;8.520;2022-10-16T16:13:44;2.55;;;1.90;;
28427;SDS011;15662;49.128;8.520;2022-10-16T16:16:14;3.63;;;2.50;;
28427;SDS011;15662;49.128;8.520;2022-10-16T16:18:44;4.93;;;2.20;;
28427;SDS011;15662;49.128;8.520;2022-10-16T16:21:13;3.80;;;2.10;;
28427;SDS011;15662;49.128;8.520;2022-10-16T16:23:42;2.88;;;2.47;;
28427;SDS011;15662;49.128;8.520;2022-10-16T16:26:31;2.00;;;1.90;;
28427;SDS011;15662;49.128;8.520;2022-10-16T16:29:03;3.13;;;2.17;;
28427;SDS011;15662;49.128;8.520;2022-10-16T16:31:32;3.05;;;2.13;;
28427;SDS011;15662;49.128;8.520;2022-10-16T16:34:01;3.25;;;1.88;;
28427;SDS011;15662;49.128;8.520;2022-10-16T16:36:30;5.10;;;1.80;;
28427;SDS011;15662;49.128;8.520;2022-10-16T16:38:59;1.80;;;1.70;;
28427;SDS011;15662;49.128;8.520;2022-10-16T16:41:29;2.25;;;1.83;;
28427;SDS011;15662;49.128;8.520;2022-10-16T16:44:03;2.97;;;2.45;;
28427;SDS011;15662;49.128;8.520;2022-10-16T16:46:35;2.90;;;2.65;;
28427;SDS011;15662;49.128;8.520;2022-10-16T16:49:05;4.53;;;2.50;;
28427;SDS011;15662;49.128;8.520;2022-10-16T16:51:34;3.40;;;2.28;;
28427;SDS011;15662;49.128;8.520;2022-10-16T16:54:06;3.83;;;2.33;;
28427;SDS011;15662;49.128;8.520;2022-10-16T16:56:37;2.45;;;2.25;;
28427;SDS011;15662;49.128;8.520;2022-10-16T16:59:10;2.95;;;2.42;;
28427;SDS011;15662;49.128;8.520;2022-10-16T17:01:42;5.20;;;3.50;;
28427;SDS011;15662;49.128;8.520;2022-10-16T17:04:11;3.95;;;3.55;;
28427;SDS011;15662;49.128;8.520;2022-10-16T17:06:43;6.43;;;4.38;;
28427;SDS011;15662;49.128;8.520;2022-10-16T17:09:11;5.53;;;3.47;;
28427;SDS011;15662;49.128;8.520;2022-10-16T17:11:41;3.60;;;3.25;;
28427;SDS011;15662;49.128;8.520;2022-10-16T17:14:11;4.32;;;3.20;;
28427;SDS011;15662;49.128;8.520;2022-10-16T17:16:40;3.67;;;3.20;;
28427;SDS011;15662;49.128;8.520;2022-10-16T17:21:43;3.10;;;2.80;;
28427;SDS011;15662;49.128;8.520;2022-10-16T17:24:16;3.50;;;2.90;;
28427;SDS011;15662;49.128;8.520;2022-10-16T17:29:16;4.50;;;3.30;;
28427;SDS011;15662;49.128;8.520;2022-10-16T17:31:46;6.68;;;4.13;;
28427;SDS011;15662;49.128;8.520;2022-10-16T17:34:18;11.27;;;7.90;;
28427;SDS011;15662;49.128;8.520;2022-10-16T17:36:48;21.83;;;14.70;;
28427;SDS011;15662;49.128;8.520;2022-10-16T17:39:18;42.88;;;29.20;;
28427;SDS011;15662;49.128;8.520;2022-10-16T17:41:48;34.50;;;24.52;;
28427;SDS011;15662;49.128;8.520;2022-10-16T17:44:17;50.88;;;36.60;;